Time;durP1;ratioP1;P1;durP2;ratioP2;P2;SDS_P1;SDS_P2;PMS_P1;PMS_P2;Temp;Humidity;BMP_temperature;BMP_pressure;BME280_temperature;BME280_humidity;BME280_pressure;Samples;Min_cycle;Max_cycle;Signal;HPM_P1;HPM_P2
2022/01/18 00:00:45;;;;;;;;;;;5.20;99.90;;;4.78;100.00;100984.63;4994054;28;20311;-64
2022/01/18 00:03:10;;;;;;;;;;;5.30;99.90;;;4.79;100.00;100986.31;4995473;28;19961;-64
2022/01/18 00:05:36;;;;;;;;;;;5.30;99.90;;;4.78;100.00;100984.63;4994849;28;19918;-64
2022/01/18 00:08:02;;;;;;;;;;;5.30;99.90;;;4.81;100.00;100978.59;4995386;28;20291;-64
2022/01/18 00:10:30;;;;;;;;;;;5.30;99.90;;;4.66;100.00;100953.38;4977286;28;19921;-64
2022/01/18 00:18:06;;;;;;;;;;;5.40;99.90;;;4.89;100.00;100981.81;4993598;28;19939;-64
2022/01/18 00:23:17;;;;;;;;;;;5.40;99.90;;;4.63;100.00;100927.88;4995194;28;20349;-64
2022/01/18 00:25:43;;;;;;;;;;;5.40;99.90;;;4.84;100.00;100976.84;4993410;28;20228;-64
2022/01/18 00:28:09;;;;;;;;;;;5.40;99.90;;;4.84;100.00;100978.53;4977507;28;19914;-65
2022/01/18 00:35:42;;;;;;;;;;;5.40;99.90;;;4.90;100.00;100996.28;4993536;28;20347;-64
2022/01/18 00:38:17;;;;;;;;;;;5.40;99.90;;;4.97;100.00;101002.94;4994710;28;19917;-64
2022/01/18 00:40:42;;;;;;;;;;;5.40;99.90;;;4.92;100.00;100997.94;4994340;28;19921;-64
2022/01/18 00:43:08;;;;;;;;;;;5.40;99.90;;;4.95;100.00;101007.25;4993332;28;20076;-64
2022/01/18 00:45:34;;;;;;;;;;;5.40;99.90;;;4.96;100.00;101014.88;4993404;28;19918;-64
2022/01/18 00:48:01;;;;;;;;;;;5.40;99.90;;;4.94;100.00;101013.28;4994739;28;19917;-64
2022/01/18 00:50:31;;;;;;;;;;;5.40;99.90;;;4.91;100.00;101003.94;4994659;28;19940;-64
2022/01/18 00:52:57;;;;;;;8.02;6.18;;;5.50;99.90;;;4.95;100.00;101007.25;4993107;28;20518;-64
2022/01/18 00:55:26;;;;;;;7.40;5.30;;;5.50;99.90;;;4.98;100.00;101009.75;4992595;28;20216;-64
2022/01/18 00:57:51;;;;;;;7.45;5.40;;;5.50;99.90;;;5.02;100.00;101023.31;4992613;28;20206;-64
2022/01/18 01:00:18;;;;;;;6.40;4.55;;;5.50;99.90;;;5.02;100.00;101013.09;4993723;28;20190;-64
2022/01/18 01:02:43;;;;;;;7.63;4.78;;;5.60;99.90;;;4.97;100.00;101008.91;4993036;28;20602;-64
2022/01/18 01:05:09;;;;;;;7.43;4.57;;;5.50;99.90;;;4.97;100.00;101005.50;4992779;28;20189;-64
2022/01/18 01:07:37;;;;;;;6.40;4.95;;;5.50;99.90;;;4.98;100.00;101015.72;4976397;28;20186;-65
2022/01/18 01:10:04;;;;;;;6.85;4.57;;;5.50;99.90;;;5.02;100.00;101013.09;4993508;28;20238;-64
2022/01/18 01:12:30;;;;;;;6.07;4.38;;;5.50;99.90;;;4.94;100.00;101011.53;4992526;28;20194;-65
2022/01/18 01:15:03;;;;;;;8.00;5.13;;;5.50;99.90;;;4.72;100.00;100979.66;4992489;28;20217;-64
2022/01/18 01:34:36;;;;;;;5.32;4.63;;;5.50;99.90;;;4.90;100.00;101024.44;4993604;28;20551;-64
2022/01/18 01:44:59;;;;;;;9.95;5.10;;;5.50;99.90;;;4.94;100.00;101049.06;4984644;28;20213;-64
2022/01/18 01:47:34;;;;;;;6.63;4.35;;;5.50;99.90;;;5.00;100.00;101053.19;4992102;28;20182;-64
2022/01/18 01:50:02;;;;;;;5.90;4.38;;;5.60;99.90;;;4.87;100.00;101045.78;4992629;28;20193;-64
2022/01/18 01:52:28;;;;;;;7.20;4.22;;;5.60;99.90;;;4.96;100.00;101054.97;4976526;28;20221;-65
2022/01/18 01:54:54;;;;;;;7.80;4.82;;;5.50;99.90;;;4.95;100.00;101053.28;4991902;28;20217;-64
2022/01/18 01:57:20;;;;;;;7.63;5.28;;;5.50;99.90;;;4.91;100.00;101060.22;4976198;28;20189;-64
2022/01/18 01:59:46;;;;;;;6.75;4.50;;;5.50;99.90;;;4.91;100.00;101054.25;4975602;28;20778;-64
2022/01/18 02:02:12;;;;;;;6.38;4.93;;;5.50;99.90;;;4.71;100.00;101024.00;4992052;28;20194;-64
2022/01/18 02:04:38;;;;;;;7.35;4.75;;;5.50;99.90;;;4.59;100.00;101014.88;4975794;28;20201;-65
2022/01/18 02:07:04;;;;;;;7.55;4.95;;;5.50;99.90;;;4.80;100.00;101051.06;4993038;28;20285;-64
2022/01/18 02:09:30;;;;;;;7.35;5.15;;;5.60;99.90;;;4.91;100.00;101051.69;4992977;28;20701;-64
2022/01/18 02:11:57;;;;;;;6.25;4.80;;;5.50;99.90;;;4.84;100.00;101057.81;4991799;28;20620;-65
2022/01/18 02:14:24;;;;;;;6.45;4.95;;;5.50;99.90;;;4.96;100.00;101055.81;4995652;28;20252;-64
2022/01/18 02:22:20;;;;;;;6.78;4.72;;;5.50;99.90;;;4.89;100.00;101049.16;4996776;28;20260;-64
2022/01/18 02:24:46;;;;;;;5.97;4.57;;;5.50;99.90;;;4.92;100.00;101046.53;4995544;28;20205;-64
2022/01/18 02:27:12;;;;;;;7.72;5.35;;;5.60;99.90;;;5.05;100.00;101038.56;4995410;28;20692;-64
2022/01/18 02:29:37;;;;;;;6.70;5.07;;;5.60;99.90;;;4.79;100.00;101000.81;4979309;28;20197;-65
2022/01/18 02:32:05;;;;;;;6.57;5.22;;;5.60;99.90;;;5.07;100.00;101064.97;4963157;28;20192;-64
2022/01/18 02:34:31;;;;;;;6.00;4.63;;;5.60;99.90;;;4.91;100.00;101028.66;4979515;28;20225;-64
2022/01/18 02:36:57;;;;;;;7.00;5.22;;;5.50;99.90;;;5.08;100.00;101051.31;4995048;28;20186;-65
2022/01/18 02:39:27;;;;;;;8.05;5.20;;;5.60;99.90;;;4.75;100.00;101000.06;4995338;28;20198;-64
2022/01/18 02:41:58;;;;;;;6.35;4.95;;;5.60;99.90;;;5.05;100.00;101049.66;4979106;28;20293;-64
2022/01/18 02:44:25;;;;;;;7.10;4.88;;;5.60;99.90;;;5.05;100.00;101049.66;4995305;28;20189;-64
2022/01/18 02:46:51;;;;;;;8.57;4.88;;;5.60;99.90;;;5.06;100.00;101061.56;4995095;28;20193;-64
2022/01/18 02:49:17;;;;;;;6.68;4.88;;;5.60;99.90;;;4.82;100.00;101011.81;4995150;28;20288;-64
2022/01/18 02:51:43;;;;;;;5.22;4.28;;;5.60;99.90;;;5.09;100.00;101043.59;4994923;28;20639;-65
2022/01/18 02:54:12;;;;;;;6.40;4.75;;;5.60;99.90;;;5.08;100.00;101048.75;4994959;28;20332;-64
2022/01/18 02:56:42;;;;;;;6.82;5.10;;;5.60;99.90;;;5.02;100.00;101033.56;4994963;28;20200;-65
2022/01/18 03:04:24;;;;;;;5.30;4.45;;;5.60;99.90;;;4.88;100.00;101003.16;4995944;28;20654;-65
2022/01/18 03:06:50;;;;;;;7.55;5.35;;;5.50;99.90;;;4.97;100.00;101016.56;4994637;28;20198;-65
2022/01/18 03:09:16;;;;;;;;;;;5.60;99.90;;;5.09;100.00;101029.97;4995020;28;20609;-64
2022/01/18 03:11:42;;;;;;;;;;;5.60;99.90;;;5.07;100.00;101044.50;4994905;28;19925;-64
2022/01/18 03:14:08;;;;;;;;;;;5.60;99.90;;;5.07;100.00;101037.69;4996216;28;20375;-64
2022/01/18 03:16:33;;;;;;;;;;;5.60;99.90;;;5.01;100.00;101024.19;4995130;28;19969;-64
2022/01/18 03:18:59;;;;;;;;;;;5.60;99.90;;;5.05;100.00;101025.78;4994764;28;20291;-64
2022/01/18 03:21:25;;;;;;;;;;;5.60;99.90;;;5.02;100.00;101026.72;4995125;28;20005;-64
2022/01/18 03:23:55;;;;;;;;;;;5.60;99.90;;;5.09;100.00;101038.50;4994406;28;19921;-64
2022/01/18 03:26:30;;;;;;;;;;;5.60;99.90;;;5.09;100.00;101042.75;4994721;28;20485;-64
2022/01/18 03:28:56;;;;;;;;;;;5.60;99.90;;;4.79;100.00;101001.66;4996117;28;20026;-65
2022/01/18 03:31:22;;;;;;;;;;;5.50;99.90;;;4.93;100.00;101045.69;4978397;28;20367;-65
2022/01/18 03:33:47;;;;;;;;;;;5.60;99.90;;;5.04;100.00;101034.34;4995497;28;19917;-64
2022/01/18 03:36:13;;;;;;;;;;;5.60;99.90;;;5.04;100.00;101031.78;4994725;28;19918;-64
2022/01/18 03:38:39;;;;;;;;;;;5.50;99.90;;;4.76;100.00;100994.06;4995508;28;19922;-64
2022/01/18 03:41:05;;;;;;;;;;;5.50;99.90;;;4.97;100.00;101023.41;4995872;28;19918;-64
2022/01/18 03:43:31;;;;;;;;;;;5.50;99.90;;;4.86;100.00;101005.75;4994661;28;19921;-64
2022/01/18 03:46:02;;;;;;;;;;;5.60;99.90;;;5.04;100.00;101039.44;4994496;28;20016;-64
2022/01/18 03:48:37;;;;;;;;;;;5.50;99.90;;;5.03;100.00;101030.09;4994855;28;19922;-64
2022/01/18 03:51:03;;;;;;;;;;;5.50;99.90;;;5.05;100.00;101041.13;4994469;28;19984;-64
2022/01/18 03:53:29;;;;;;;;;;;5.50;99.90;;;5.01;100.00;101026.75;4994498;28;19918;-64
2022/01/18 03:55:55;;;;;;;;;;;5.50;99.90;;;5.04;100.00;101045.41;4995229;28;20334;-65
2022/01/18 03:58:21;;;;;;;;;;;5.50;99.90;;;5.10;100.00;101049.56;4994285;28;20330;-64
2022/01/18 04:00:47;;;;;;;;;;;5.50;99.90;;;5.06;100.00;101047.94;4995353;28;19918;-64
2022/01/18 04:03:12;;;;;;;;;;;5.50;99.90;;;4.81;100.00;101019.53;4995601;28;19972;-64
2022/01/18 04:05:38;;;;;;;;;;;5.50;99.90;;;5.07;100.00;101053.03;4994333;28;19918;-64
2022/01/18 04:08:04;;;;;;;;;;;5.50;99.90;;;4.95;100.00;101050.72;4993798;28;19929;-64
2022/01/18 04:10:30;;;;;;;;;;;5.60;99.90;;;5.05;100.00;101065.00;4994078;28;19921;-64
2022/01/18 04:12:56;;;;;;;;;;;5.50;99.90;;;5.03;100.00;101045.44;4994931;28;19940;-64
2022/01/18 04:15:22;;;;;;;;;;;5.50;99.90;;;4.86;100.00;101027.91;4994887;28;19924;-65
2022/01/18 04:30:45;;;;;;;;;;;5.50;99.90;;;5.04;100.00;101062.47;4994808;28;19918;-64
2022/01/18 04:33:10;;;;;;;;;;;5.50;99.90;;;4.98;100.00;101063.47;4993600;28;19972;-64
2022/01/18 04:35:36;;;;;;;;;;;5.50;99.90;;;5.02;100.00;101074.47;4994545;28;19918;-64
2022/01/18 04:38:02;;;;;;;;;;;5.50;99.90;;;4.94;100.00;101064.41;4994649;28;20330;-64
2022/01/18 04:40:30;;;;;;;;;;;5.50;99.90;;;5.01;100.00;101078.75;4993375;28;19917;-64
2022/01/18 04:50:51;;;;;;;;;;;5.50;99.90;;;4.69;100.00;101027.47;4994127;28;19921;-64
2022/01/18 04:53:17;;;;;;;;;;;5.50;99.90;;;4.99;100.00;101083.06;4994626;28;19917;-64
2022/01/18 04:55:43;;;;;;;;;;;5.50;99.90;;;4.96;100.00;101080.56;4994472;28;20326;-64
2022/01/18 04:58:09;;;;;;;;;;;5.50;99.90;;;4.79;100.00;101064.72;4994491;28;19918;-64
2022/01/18 05:00:34;;;;;;;;;;;5.50;99.90;;;4.95;100.00;101084.81;4993541;28;19924;-64
2022/01/18 05:03:00;;;;;;;;;;;5.40;99.90;;;4.92;100.00;101089.19;4993480;28;19914;-64
2022/01/18 05:05:29;;;;;;;;;;;5.40;99.90;;;4.73;100.00;101058.03;4993004;28;19918;-64
2022/01/18 05:07:58;;;;;;;;;;;5.40;99.90;;;4.86;100.00;101089.28;4992692;28;19929;-64
2022/01/18 05:10:26;;;;;;;;;;;5.40;99.90;;;4.80;100.00;101072.38;4992991;28;19928;-64
2022/01/18 05:12:54;;;;;;;;;;;5.40;99.90;;;4.91;100.00;101092.63;4993858;28;20340;-64
2022/01/18 05:23:05;;;;;;;;;;;5.40;99.90;;;4.88;100.00;101079.88;4992851;28;19990;-64
2022/01/18 05:25:31;;;;;;;;;;;5.40;99.90;;;4.94;100.00;101088.25;4992631;28;19964;-64
2022/01/18 05:27:57;;;;;;;;;;;5.40;99.90;;;4.91;100.00;101085.78;4994028;28;19925;-64
2022/01/18 05:30:23;;;;;;;;;;;5.40;99.90;;;4.93;100.00;101091.72;4992723;28;19922;-64
2022/01/18 05:32:49;;;;;;;;;;;5.40;99.90;;;4.85;100.00;101079.97;4992769;28;19924;-65
2022/01/18 05:35:15;;;;;;;;;;;5.40;99.90;;;4.89;100.00;101084.97;4993079;28;20348;-64
2022/01/18 05:37:41;;;;;;;;;;;5.40;99.90;;;4.82;100.00;101078.31;4992653;28;19926;-64
2022/01/18 05:40:07;;;;;;;;;;;5.40;99.90;;;4.74;100.00;101074.22;4992392;28;19917;-64
2022/01/18 05:42:33;;;;;;;;;;;5.40;99.90;;;4.77;100.00;101072.47;4992914;28;19924;-64
2022/01/18 05:44:58;;;;;;;;;;;5.40;99.90;;;4.94;100.00;101103.59;4976125;28;19914;-64
2022/01/18 05:47:24;;;;;;;;;;;5.40;99.90;;;4.90;100.00;101099.44;4976985;28;20295;-64
2022/01/18 05:49:50;;;;;;;;;;;5.40;99.90;;;4.90;100.00;101078.13;4997525;28;19921;-64
2022/01/18 05:52:16;;;;;;;;;;;5.40;99.90;;;4.93;100.00;101096.81;4980356;28;19953;-64
2022/01/18 05:54:42;;;;;;;;;;;5.40;99.90;;;4.91;100.00;101082.38;4997980;28;19925;-64
2022/01/18 05:57:07;;;;;;;;;;;5.40;99.90;;;4.96;100.00;101094.19;4996541;28;19917;-64
2022/01/18 05:59:36;;;;;;;;;;;5.40;99.90;;;4.88;100.00;101085.84;4996256;28;19918;-64
2022/01/18 06:02:13;;;;;;;;;;;5.50;99.90;;;4.71;100.00;101067.44;4996146;28;19918;-65
2022/01/18 06:07:24;;;;;;;;;;;5.40;99.90;;;4.76;100.00;101098.06;4997315;28;20013;-64
2022/01/18 06:09:49;;;;;;;;;;;5.30;99.90;;;4.72;100.00;101104.94;4997455;28;20016;-64
2022/01/18 06:12:16;;;;;;;;;;;5.30;99.90;;;4.72;100.00;101101.53;4996108;28;20287;-64
2022/01/18 06:14:41;;;;;;;;;;;5.30;99.90;;;4.71;100.00;101113.47;4997473;28;20036;-64
2022/01/18 06:17:07;;;;;;;;;;;5.30;99.90;;;4.58;100.00;101086.50;4996066;28;20348;-64
2022/01/18 06:19:33;;;;;;;;;;;5.20;99.90;;;4.47;100.00;101076.47;4997414;28;19918;-64
2022/01/18 06:21:58;;;;;;;;;;;5.20;99.90;;;4.65;100.00;101103.38;4995838;28;20020;-64
2022/01/18 06:24:24;;;;;;;;;;;5.20;99.90;;;4.60;100.00;101094.97;4997091;28;19924;-64
2022/01/18 06:26:50;;;;;;;;;;;5.20;99.90;;;4.71;100.00;101110.91;4995639;28;19917;-65
2022/01/18 06:29:16;;;;;;;;;;;5.20;99.90;;;4.75;100.00;101107.44;4997334;28;19968;-64
2022/01/18 06:31:42;;;;;;;;;;;5.30;99.90;;;4.70;100.00;101093.88;4996935;28;19930;-64
2022/01/18 06:34:08;;;;;;;;;;;5.30;99.90;;;4.79;100.00;101114.16;4996858;28;20414;-64
2022/01/18 06:36:33;;;;;;;;;;;5.30;99.90;;;4.79;100.00;101116.72;4995841;28;19922;-64
2022/01/18 06:38:59;;;;;;;;;;;5.30;99.90;;;4.82;100.00;101123.50;4995349;28;20256;-64
2022/01/18 06:41:25;;;;;;;;;;;5.30;99.90;;;4.57;100.00;101080.53;4979724;28;19984;-64
2022/01/18 06:43:51;;;;;;;;;;;5.30;99.90;;;4.81;100.00;101126.91;4996858;28;20375;-64
2022/01/18 06:46:16;;;;;;;;;;;5.30;99.90;;;4.66;100.00;101128.09;4996830;28;19918;-64
2022/01/18 06:48:44;;;;;;;;;;;5.30;99.90;;;4.35;100.00;101063.97;4996679;28;19967;-64
2022/01/18 06:51:10;;;;;;;;;;;5.30;99.90;;;4.75;100.00;101137.28;4996394;28;19929;-64
2022/01/18 06:53:43;;;;;;;;;;;5.30;99.90;;;4.72;100.00;101143.28;4996890;28;19921;-64
2022/01/18 06:56:09;;;;;;;;;;;5.30;99.90;;;4.70;100.00;101139.06;4996508;28;20224;-64
2022/01/18 06:58:35;;;;;;;;;;;5.30;99.90;;;4.70;100.00;101137.34;4994936;28;20370;-64
2022/01/18 07:01:00;;;;;;;;;;;5.20;99.90;;;4.76;100.00;101144.94;4994666;28;19922;-64
2022/01/18 07:03:26;;;;;;;;;;;5.20;99.90;;;4.79;100.00;101144.84;4979062;28;20394;-64
2022/01/18 07:05:52;;;;;;;;;;;5.30;99.90;;;4.78;100.00;101147.44;4995004;28;19918;-64
2022/01/18 07:08:18;;;;;;;;;;;5.20;99.90;;;4.61;100.00;101118.81;4996310;28;19921;-64
2022/01/18 07:10:43;;;;;;;;;;;5.20;99.90;;;4.79;100.00;101157.63;4995419;28;19924;-64
2022/01/18 07:13:11;;;;;;;;;;;5.30;99.90;;;4.73;100.00;101134.75;4994812;28;19917;-64
2022/01/18 07:15:37;;;;;;;;;;;5.30;99.90;;;4.85;100.00;101159.25;4996246;28;19918;-64
2022/01/18 07:18:05;;;;;;;;;;;5.30;99.90;;;4.88;100.00;101146.38;4995965;28;19963;-64
2022/01/18 07:20:32;;;;;;;;;;;5.40;99.90;;;4.87;100.00;101142.97;4994914;28;19945;-64
2022/01/18 07:22:58;;;;;;;;;;;5.40;99.90;;;4.57;100.00;101102.69;4996057;28;19918;-64
2022/01/18 07:25:25;;;;;;;;;;;5.40;99.90;;;4.92;100.00;101161.63;4996023;28;19918;-64
2022/01/18 07:27:51;;;;;;;;;;;5.40;99.90;;;5.02;100.00;101164.00;4996310;28;20034;-64
2022/01/18 07:30:17;;;;;;;;;;;5.50;99.90;;;4.79;100.00;101133.78;4996313;28;20356;-64
2022/01/18 07:32:43;;;;;;;;;;;5.50;99.90;;;4.72;100.00;101117.72;4994819;28;19924;-64
2022/01/18 07:35:11;;;;;;;;;;;5.50;99.90;;;4.91;100.00;101171.91;4994457;28;19918;-64
2022/01/18 07:37:37;;;;;;;;;;;5.50;99.90;;;4.69;100.00;101151.03;4962943;28;20378;-64
2022/01/18 07:40:04;;;;;;;;;;;5.40;99.90;;;4.87;100.00;101171.09;4994514;28;19913;-64
2022/01/18 07:42:29;;;;;;;;;;;5.40;99.90;;;4.97;100.00;101179.44;4978366;28;20390;-64
2022/01/18 07:44:55;;;;;;;;;;;5.40;99.90;;;4.97;100.00;101174.31;4995788;28;19917;-64
2022/01/18 07:47:21;;;;;;;;;;;5.40;99.90;;;5.02;100.00;101176.81;4994472;28;20401;-64
2022/01/18 07:49:47;;;;;;;;;;;5.50;99.90;;;4.79;100.00;101137.16;4995708;28;19918;-64
2022/01/18 07:52:13;;;;;;;;;;;5.50;99.90;;;5.17;100.00;101182.44;4995154;28;19924;-68
2022/01/18 07:54:38;;;;;;;;;;;5.60;99.90;;;5.08;100.00;101192.03;4995567;28;19918;-68
2022/01/18 07:57:04;;;;;;;;;;;5.60;99.90;;;4.98;100.00;101181.97;4993983;28;19918;-73
2022/01/18 07:59:30;;;;;;;;;;;5.60;99.90;;;5.00;100.00;101184.50;4993974;28;19917;-73
2022/01/18 08:01:56;;;;;;;;;;;5.60;99.90;;;5.05;100.00;101186.94;4995353;28;19925;-73
2022/01/18 08:04:22;;;;;;;;;;;5.60;99.90;;;5.03;100.00;101181.84;4995412;28;20385;-71
2022/01/18 08:06:48;;;;;;;;;;;5.60;99.90;;;5.01;100.00;101175.13;4994020;28;20368;-77
2022/01/18 08:09:18;;;;;;;;;;;5.60;99.90;;;5.00;100.00;101187.06;4994728;28;19953;-77
2022/01/18 08:11:45;;;;;;;;;;;5.60;99.90;;;5.13;100.00;101182.50;4993955;28;19968;-76
2022/01/18 08:14:13;;;;;;;;;;;5.60;99.90;;;5.16;100.00;101185.03;4994823;28;19972;-77
2022/01/18 08:17:00;;;;;;;;;;;5.60;99.90;;;5.29;100.00;101194.09;4994897;28;19961;-77
2022/01/18 08:19:29;;;;;;;;;;;5.70;99.90;;;5.10;100.00;101157.03;4994093;28;19918;-77
2022/01/18 08:21:55;;;;;;;;;;;5.80;99.90;;;5.32;100.00;101194.06;4995017;28;20431;-66
2022/01/18 08:24:21;;;;;;;;;;;5.80;99.90;;;4.89;100.00;101113.09;4995002;28;20012;-77
2022/01/18 08:26:47;;;;;;;;;;;5.80;99.90;;;5.30;100.00;101185.56;4994932;28;19918;-78
2022/01/18 08:29:13;;;;;;;;;;;5.90;99.90;;;5.40;100.00;101196.44;4977097;28;19925;-77
2022/01/18 08:31:39;;;;;;;;;;;5.90;99.90;;;5.13;100.00;101149.25;4976954;28;19918;-71
2022/01/18 08:34:05;;;;;;;;;;;6.00;99.90;;;5.50;100.00;101197.94;5016078;28;19917;-78
2022/01/18 08:36:31;;;;;;;;;;;6.00;99.90;;;5.28;100.00;101190.69;5013958;28;19948;-73
2022/01/18 08:38:57;;;;;;;;;;;6.00;99.90;;;5.22;100.00;101162.69;5014000;28;20291;-69
2022/01/18 08:41:22;;;;;;;;;;;6.00;99.90;;;5.29;100.00;101165.97;5012997;28;19921;-71
2022/01/18 08:43:49;;;;;;;;;;;6.10;99.90;;;5.69;100.00;101211.97;5014266;28;20301;-71
2022/01/18 08:46:15;;;;;;;;;;;6.20;99.90;;;5.61;100.00;101203.63;4996403;28;19920;-70
2022/01/18 08:48:42;;;;;;;;;;;6.20;99.90;;;5.70;100.00;101199.16;5014268;28;20378;-74
2022/01/18 08:51:08;;;;;;;;;;;6.20;99.90;;;5.58;100.00;101173.00;5012808;28;19917;-73
2022/01/18 08:53:37;;;;;;;;;;;6.30;99.90;;;5.74;100.00;101208.47;5012960;28;19924;-70
2022/01/18 08:56:03;;;;;;;;;;;6.30;99.90;;;5.69;100.00;101200.03;4996295;28;19935;-70
2022/01/18 08:58:29;;;;;;;;;;;6.30;99.90;;;5.50;100.00;101156.97;5012721;28;19918;-70
2022/01/18 09:00:55;;;;;;;;;;;6.30;99.90;;;5.77;100.00;101192.16;5013852;28;19972;-75
2022/01/18 09:03:21;;;;;;;;;;;6.40;99.90;;;5.79;100.00;101200.66;5013590;28;19929;-78
2022/01/18 09:05:47;;;;;;;;;;;6.40;99.80;;;5.70;100.00;101182.94;5012854;28;19918;-77
2022/01/18 09:08:13;;;;;;;;;;;6.40;99.90;;;5.91;100.00;101197.00;5013526;28;20425;-77
2022/01/18 09:10:40;;;;;;;;;;;6.40;99.90;;;5.78;100.00;101182.75;5014253;28;20268;-70
2022/01/18 09:13:06;;;;;;;;;;;6.50;99.90;;;5.96;100.00;101213.09;5012441;28;20374;-71
2022/01/18 09:15:32;;;;;;;;;;;6.50;99.90;;;5.90;100.00;101203.00;5012718;28;20412;-75
2022/01/18 09:17:58;;;;;;;;;;;6.50;99.90;;;5.86;100.00;101211.59;5012661;28;19918;-72
2022/01/18 09:20:24;;;;;;;;;;;6.60;99.90;;;6.01;100.00;101206.16;5013542;28;19949;-73
2022/01/18 09:22:52;;;;;;;;;;;6.60;99.90;;;6.15;100.00;101208.38;5013582;28;19940;-73
2022/01/18 09:25:28;;;;;;;;;;;6.70;99.90;;;6.20;100.00;101203.97;5012111;28;19913;-71
2022/01/18 09:27:55;;;;;;;;;;;6.80;99.90;;;6.27;100.00;101203.75;5012281;28;20379;-75
2022/01/18 09:30:21;;;;;;;;;;;6.90;99.80;;;6.42;100.00;101208.50;5014343;28;20367;-75
2022/01/18 09:32:47;;;;;;;;;;;7.00;99.60;;;6.61;100.00;101200.31;5014714;28;19933;-77
2022/01/18 09:35:13;;;;;;;;;;;7.10;99.30;;;6.75;100.00;101211.06;4999823;28;20317;-69
2022/01/18 09:37:39;;;;;;;;;;;7.30;98.50;;;6.78;100.00;101209.25;5013671;28;19944;-73
2022/01/18 09:40:05;;;;;;;;;;;7.30;98.50;;;6.93;100.00;101207.97;5013449;28;19921;-69
2022/01/18 09:42:34;;;;;;;;;;;7.40;98.30;;;6.80;100.00;101202.34;5015413;28;19965;-73
2022/01/18 09:45:02;;;;;;;;;;;7.50;98.00;;;7.10;100.00;101215.19;5012522;28;19917;-77
2022/01/18 09:47:28;;;;;;;;;;;7.70;98.00;;;7.12;100.00;101219.41;5013511;28;20382;-71
2022/01/18 09:49:56;;;;;;;;;;;7.70;97.70;;;6.78;100.00;101175.06;5012363;28;19918;-74
2022/01/18 09:52:22;;;;;;;;;;;7.80;97.40;;;7.21;100.00;101221.72;5014103;28;20425;-71
2022/01/18 09:54:48;;;;;;;;;;;7.90;97.00;;;7.38;100.00;101221.22;5028886;28;19917;-74
2022/01/18 09:57:13;;;;;;;;;;;7.90;95.60;;;7.43;100.00;101221.91;5013047;28;19917;-77
2022/01/18 09:59:39;;;;;;;;;;;8.00;95.50;;;7.21;100.00;101200.34;5013624;28;19923;-71
2022/01/18 10:02:06;;;;;;;;;;;8.00;95.40;;;6.91;100.00;101214.91;5013184;28;20291;-73
2022/01/18 10:04:33;;;;;;;;;;;7.80;95.40;;;7.09;100.00;101218.63;5013409;28;20295;-77
2022/01/18 10:06:59;;;;;;;;;;;7.80;95.70;;;7.15;100.00;101210.78;4995973;28;19914;-75
2022/01/18 10:09:25;;;;;;;;;;;7.90;95.60;;;7.16;100.00;101220.19;5012488;28;19921;-71
2022/01/18 10:12:08;;;;;;;;;;;7.80;95.30;;;7.00;100.00;101213.81;5011915;28;19917;-69
2022/01/18 10:14:35;;;;;;;;;;;7.80;95.10;;;6.82;100.00;101174.09;5012726;28;19913;-79
2022/01/18 10:17:01;;;;;;;;;;;7.80;94.70;;;6.77;100.00;101183.63;4995812;28;19918;-70
2022/01/18 10:19:31;;;;;;;;;;;7.70;94.60;;;6.90;100.00;101167.03;4995995;28;19917;-71
2022/01/18 10:22:17;;;;;;;;;;;7.80;94.90;;;7.16;100.00;101181.66;5012977;28;19917;-78
2022/01/18 10:24:43;;;;;;;;;;;7.90;94.90;;;7.63;100.00;101200.78;5013180;28;19917;-76
2022/01/18 10:27:09;;;;;;;;;;;8.10;94.50;;;7.22;100.00;101117.31;5013256;28;19964;-78
2022/01/18 10:29:49;;;;;;;;;;;8.10;93.30;;;7.51;100.00;101152.34;5013726;28;19917;-73
2022/01/18 10:37:19;;;;;;;;;;;8.50;92.90;;;8.26;100.00;101194.44;5016520;28;19924;-78
2022/01/18 10:39:52;;;;;;;;;;;8.70;92.80;;;8.19;100.00;101191.22;5017618;28;19925;-78
2022/01/18 10:42:35;;;;;;;;;;;8.80;91.40;;;8.01;100.00;101145.56;5015708;28;19991;-75
2022/01/18 10:45:05;;;;;;;;;;;8.90;90.60;;;7.85;100.00;101149.53;5015473;28;19925;-73
2022/01/18 10:47:31;;;;;;;;;;;8.90;90.40;;;7.49;100.00;101177.25;5015658;28;19967;-73
2022/01/18 10:49:57;;;;;;;;;;;8.70;89.90;;;7.75;100.00;101133.56;5015740;28;19917;-75
2022/01/18 10:52:26;;;;;;;;;;;8.70;90.60;;;7.94;100.00;101178.34;4998650;28;19917;-77
2022/01/18 10:54:54;;;;;;;;;;;8.80;90.60;;;7.73;100.00;101180.78;5016013;28;19928;-75
2022/01/18 10:57:41;;;;;;;;;;;8.80;90.20;;;7.83;100.00;101164.16;5016267;28;19917;-77
2022/01/18 11:00:09;;;;;;;;;;;8.70;90.10;;;7.69;100.00;101184.31;5015134;28;19917;-75
2022/01/18 11:02:36;;;;;;;;;;;8.50;90.70;;;6.91;100.00;101098.59;5016713;28;19917;-76
2022/01/18 11:05:21;;;;;;;;;;;8.30;91.50;;;7.50;100.00;101164.34;4999011;28;20305;-77
2022/01/18 11:07:48;;;;;;;;;;;8.30;92.10;;;7.53;100.00;101171.94;5000091;28;19924;-78
2022/01/18 11:10:15;;;;;;;;;;;8.30;92.10;;;7.32;100.00;101164.09;5014852;28;19921;-78
2022/01/18 11:12:56;;;;;;;;;;;8.20;92.30;;;7.29;100.00;101154.72;5015189;28;19917;-72
2022/01/18 11:15:23;;;;;;;;;;;8.20;92.90;;;7.20;100.00;101129.34;5016927;28;19921;-71
2022/01/18 11:17:57;;;;;;;;;;;8.00;93.10;;;6.80;100.00;101079.22;5015118;28;19924;-76
2022/01/18 11:20:23;;;;;;;;;;;7.90;93.00;;;7.25;100.00;101143.69;5014642;28;19925;-77
2022/01/18 11:22:49;;;;;;;;;;;7.80;93.00;;;6.87;100.00;101102.94;5015676;28;19917;-73
2022/01/18 11:25:15;;;;;;;;;;;7.70;93.30;;;7.04;100.00;101149.50;4998547;28;19913;-72
2022/01/18 11:27:43;;;;;;;;;;;7.60;93.60;;;7.07;100.00;101140.88;4982130;28;19920;-74
2022/01/18 11:30:09;;;;;;;;;;;7.60;94.00;;;6.92;100.00;101128.50;5015464;28;20015;-72
2022/01/18 11:32:35;;;;;;;;;;;7.60;93.90;;;7.17;100.00;101140.53;5014358;28;20371;-74
2022/01/18 11:35:01;;;;;;;;;;;7.70;94.10;;;7.28;100.00;101144.50;5014206;28;19920;-73
2022/01/18 11:37:54;;;;;;;;;;;7.70;94.10;;;7.43;100.00;101152.56;5015420;28;19931;-73
2022/01/18 11:40:20;;;;;;;;;;;7.70;93.80;;;7.49;100.00;101144.69;5014240;28;19921;-74
2022/01/18 11:42:50;;;;;;;;;;;7.90;94.10;;;7.39;100.00;101096.25;5016686;28;19918;-72
2022/01/18 11:45:25;;;;;;;;;;;8.00;94.10;;;7.97;100.00;101160.25;5013603;28;19967;-70
2022/01/18 11:48:00;;;;;;;;;;;8.20;93.50;;;8.03;100.00;101147.19;5015392;28;20059;-71
2022/01/18 11:50:30;;;;;;;;;;;8.40;93.30;;;8.15;100.00;101143.38;5014175;28;19919;-69
2022/01/18 11:53:26;;;;;;;;;;;8.70;93.30;;;8.22;100.00;101136.28;5013935;28;19963;-69
2022/01/18 11:55:54;;;;;;;;;;;8.90;92.30;;;8.37;100.00;101122.94;5015290;28;19979;-68
2022/01/18 11:58:21;;;;;;;;;;;9.20;91.20;;;8.53;100.00;101126.63;5013919;28;19969;-68
2022/01/18 12:00:52;;;;;;;;;;;9.40;90.50;;;8.16;100.00;101124.47;5014006;28;20075;-69
2022/01/18 12:03:20;;;;;;;;;;;9.30;88.90;;;8.34;100.00;101117.88;5014590;28;20012;-68
2022/01/18 12:05:46;;;;;;;;;;;9.30;88.90;;;8.22;100.00;101121.72;5014861;28;19921;-68
2022/01/18 12:08:28;;;;;;;;;;;9.20;89.20;;;8.51;100.00;101120.69;5013054;28;20366;-67
2022/01/18 12:10:54;;;;;;;;;;;9.20;89.30;;;8.10;100.00;101121.28;5013968;28;19917;-72
2022/01/18 12:13:27;;;;;;;;;;;9.20;89.10;;;8.15;100.00;101112.53;5013201;28;20298;-71
2022/01/18 12:15:56;;;;;;;;;;;9.10;89.20;;;8.96;100.00;101115.59;5013770;28;19924;-69
2022/01/18 12:18:26;;;;;;;;;;;9.30;89.50;;;8.87;100.00;101054.16;4996946;28;19917;-71
2022/01/18 12:20:54;;;;;;;;;;;9.50;88.10;;;9.15;100.00;101103.69;5013292;28;19967;-70
2022/01/18 12:23:41;;;;;;;;;;;9.70;87.80;;;8.84;100.00;101112.63;4998180;28;20421;-69
2022/01/18 12:26:20;;;;;;;;;;;9.70;86.70;;;7.87;100.00;101078.38;5013448;28;19971;-71
2022/01/18 12:34:45;;;;;;;;;;;8.90;87.40;;;7.82;100.00;101114.50;5014606;28;19917;-69
2022/01/18 12:37:11;;;;;;;;;;;8.70;88.20;;;7.69;100.00;101102.94;4996809;28;19928;-65
2022/01/18 12:39:49;;;;;;;;;;;8.50;88.10;;;7.37;100.00;101060.31;5014203;28;19917;-73